SV1LH-1 Melissia GR current weather conditions

sailwx.info

Wind from 022 at 2 knots gusting 4

Air temperature 28.9° C
Dewpoint 12.7° C

Last reported at 2014-Aug-31 09:56 UTC.
Time now 2014-Aug-31 10:35 UTC

Location: N 38°03' E 023°51'.
View on Google Maps.

See reports from other nearby stations

  
Tides and Currents Weather Stations Pressure Air Temp Water Temp Dewpoint Dewpoint Depression Visibility Wind Speed Wind Dir Waves Ship Positions
date/time (UTC)wind fromknots sea level pressurealtimeterstation pressurevisibilityair tempwater tempwave heightnotes
2014-Aug-31 09:56 022 2 gusting 4 28.9
2014-Aug-31 09:51 180 3 gusting 6 28.9
2014-Aug-31 09:46 28.9
2014-Aug-31 09:41 045 6 gusting 8 28.9
2014-Aug-31 09:36 022 3 gusting 5 28.9
2014-Aug-31 09:31 315 6 gusting 10 28.9
2014-Aug-31 09:26 28.9
2014-Aug-31 09:21 315 4 gusting 6 28.9
2014-Aug-31 09:16 29.4
2014-Aug-31 09:11 28.9
2014-Aug-31 09:06 067 3 gusting 6 28.9
2014-Aug-31 09:01 337 2 gusting 6 28.3
2014-Aug-31 08:56 315 8 gusting 15 28.3
2014-Aug-31 08:51 270 4 gusting 6 28.3
2014-Aug-31 08:46 045 7 gusting 10 28.3
2014-Aug-31 08:41 022 6 gusting 8 28.9
2014-Aug-31 08:36 28.3
2014-Aug-31 08:31 022 6 gusting 10 28.3
2014-Aug-31 08:26 28.3
2014-Aug-31 08:21 022 3 gusting 6 28.3
2014-Aug-31 08:16 27.8
2014-Aug-31 08:11 27.8
2014-Aug-31 08:06 27.8
2014-Aug-31 08:01 045 8 gusting 11 27.8
2014-Aug-31 07:56 045 3 gusting 6 27.8
2014-Aug-31 07:51 27.8
2014-Aug-31 07:46 225 2 gusting 5 27.2
2014-Aug-31 07:41 337 2 gusting 5 27.2
2014-Aug-31 07:36 022 7 gusting 10 26.7
2014-Aug-31 07:31 26.7
2014-Aug-31 07:26 26.7
2014-Aug-31 07:21 337 5 gusting 8 26.7
2014-Aug-31 07:16 022 5 gusting 9 26.1
2014-Aug-31 07:11 26.1
2014-Aug-31 07:06 315 6 gusting 7 25.6
2014-Aug-31 07:01 180 4 gusting 6 25.6
2014-Aug-31 06:56 202 1 gusting 3 25.6
2014-Aug-31 06:51 25.6
2014-Aug-31 06:46 25.6
2014-Aug-31 06:41 022 7 gusting 11 25.6
2014-Aug-31 06:36 045 3 gusting 5 25.6
2014-Aug-31 06:31 022 2 gusting 5 25.0
2014-Aug-31 06:26 045 4 gusting 6 25.0
2014-Aug-31 06:21 045 2 gusting 8 25.0
2014-Aug-31 06:16 315 1 gusting 3 24.4
2014-Aug-31 06:11 24.4
2014-Aug-31 06:06 022 3 gusting 5 24.4
2014-Aug-31 06:01 022 5 gusting 9 24.4
2014-Aug-31 05:56 24.4
2014-Aug-31 05:51 045 6 gusting 6 23.9
2014-Aug-31 05:46 337 2 gusting 4 23.9
2014-Aug-31 05:41 23.3
2014-Aug-31 05:36 022 4 gusting 6 23.3
2014-Aug-31 05:31 23.3
2014-Aug-31 05:26 292 1 gusting 3 23.3
2014-Aug-31 05:21 225 1 gusting 1 23.3
2014-Aug-31 05:16 225 1 gusting 2 22.8
2014-Aug-31 05:11 337 1 gusting 2 22.8
2014-Aug-31 05:06 112 1 gusting 3 22.2
2014-Aug-31 05:01 067 5 gusting 7 22.2
2014-Aug-31 04:56 292 3 gusting 5 22.2
2014-Aug-31 04:51 21.7
2014-Aug-31 04:46 292 3 gusting 4 21.1
2014-Aug-31 04:41 20.6
2014-Aug-31 04:36 337 3 gusting 6 20.0
2014-Aug-31 04:31 270 4 gusting 6 19.4
2014-Aug-31 04:26 315 0 gusting 1 18.9
2014-Aug-31 04:21 315 3 gusting 4 18.9
2014-Aug-31 04:16 292 1 gusting 3 18.9
2014-Aug-31 04:11 18.9
2014-Aug-31 04:06 270 3 gusting 5 18.9
2014-Aug-31 04:01 315 2 gusting 4 18.9
2014-Aug-31 03:56 270 2 gusting 3 18.9
2014-Aug-31 03:51 292 2 gusting 4 18.9
2014-Aug-31 03:46 315 1 gusting 1 18.9
2014-Aug-31 03:41 315 3 gusting 6 18.9
2014-Aug-31 03:36 270 1 gusting 2 18.9
2014-Aug-31 03:31 315 1 gusting 2 18.9
2014-Aug-31 03:26 270 1 gusting 4 18.9
2014-Aug-31 03:21 315 2 gusting 4 18.9
2014-Aug-31 03:16 315 2 gusting 4 18.9
2014-Aug-31 03:11 247 2 gusting 3 18.3
2014-Aug-31 03:06 337 2 gusting 5 18.3
2014-Aug-31 03:01 18.9
2014-Aug-31 02:56 270 0 gusting 2 18.9
2014-Aug-31 02:51 337 3 gusting 4 18.9
2014-Aug-31 02:46 315 1 gusting 3 18.9
2014-Aug-31 02:41 315 3 gusting 5 18.9
2014-Aug-31 02:36 315 3 gusting 5 18.3
2014-Aug-31 02:31 045 1 gusting 3 18.3
2014-Aug-31 02:26 022 0 gusting 2 18.3
2014-Aug-31 02:21 292 0 gusting 1 18.3
2014-Aug-31 02:16 315 2 gusting 3 18.3
2014-Aug-31 02:11 337 0 gusting 1 18.9
2014-Aug-31 02:06 315 1 gusting 4 18.9
2014-Aug-31 02:01 022 3 gusting 4 18.3
2014-Aug-31 01:56 18.3
2014-Aug-31 01:51 315 1 gusting 4 18.3
2014-Aug-31 01:46 270 1 gusting 3 18.9
2014-Aug-31 01:41 315 1 gusting 3 18.9
2014-Aug-31 01:36 022 2 gusting 3 18.3
2014-Aug-31 01:31 045 1 gusting 3 18.3
2014-Aug-31 01:26 225 0 gusting 2 18.9
2014-Aug-31 01:21 292 1 gusting 1 18.9
2014-Aug-31 01:16 292 1 gusting 2 18.9
2014-Aug-31 01:11 270 3 gusting 4 18.9
2014-Aug-31 01:06 270 2 gusting 3 18.9
2014-Aug-31 01:01 315 0 gusting 2 18.9
2014-Aug-31 00:56 247 2 gusting 3 18.9
2014-Aug-31 00:51 247 1 gusting 2 18.9
2014-Aug-31 00:46 247 3 gusting 5 18.9
2014-Aug-31 00:41 315 3 gusting 5 18.9
2014-Aug-31 00:36 225 3 gusting 4 18.9
2014-Aug-31 00:31 247 0 gusting 2 18.9
2014-Aug-31 00:26 292 1 gusting 2 19.4
2014-Aug-31 00:21 270 3 gusting 6 19.4
2014-Aug-31 00:16 270 2 gusting 3 19.4
2014-Aug-31 00:11 270 2 gusting 4 19.4
2014-Aug-31 00:06 315 2 gusting 4 19.4
2014-Aug-31 00:01 315 2 gusting 4 19.4
2014-Aug-30 23:56 292 0 gusting 1 19.4
2014-Aug-30 23:51 247 2 gusting 3 19.4
2014-Aug-30 23:46 337 1 gusting 3 19.4
2014-Aug-30 23:41 270 1 gusting 4 19.4
2014-Aug-30 23:36 225 2 gusting 3 19.4
2014-Aug-30 23:31 270 1 gusting 3 19.4
2014-Aug-30 23:26 292 5 gusting 6 19.4
2014-Aug-30 23:21 157 19.4
2014-Aug-30 23:16 292 2 gusting 5 19.4
2014-Aug-30 23:11 270 1 gusting 3 19.4
2014-Aug-30 23:06 270 2 gusting 3 19.4
2014-Aug-30 23:01 337 1 gusting 3 19.4
2014-Aug-30 22:56 247 2 gusting 4 19.4
2014-Aug-30 22:51 225 3 gusting 5 19.4
2014-Aug-30 22:46 337 3 gusting 5 19.4
2014-Aug-30 22:41 247 3 gusting 4 19.4
2014-Aug-30 22:36 292 1 gusting 3 19.4
2014-Aug-30 22:31 315 3 gusting 3 19.4
2014-Aug-30 22:26 292 2 gusting 3 19.4
2014-Aug-30 22:21 247 3 gusting 5 19.4
2014-Aug-30 22:16 20.0
2014-Aug-30 22:11 270 3 gusting 5 20.0
2014-Aug-30 22:06 270 2 gusting 4 20.0
2014-Aug-30 22:01 19.4
2014-Aug-30 21:56 292 0 gusting 1 19.4
2014-Aug-30 21:51 19.4
2014-Aug-30 21:46 135 2 gusting 3 19.4
2014-Aug-30 21:41 022 2 gusting 5 19.4
2014-Aug-30 21:36 202 1 gusting 3 19.4
2014-Aug-30 21:31 315 2 gusting 2 18.9
2014-Aug-30 21:26 292 1 gusting 2 18.9
2014-Aug-30 21:21 270 1 gusting 3 18.9
2014-Aug-30 21:16 18.9
2014-Aug-30 21:11 270 3 gusting 4 18.9
2014-Aug-30 21:06 292 0 gusting 1 18.9
2014-Aug-30 21:01 315 2 gusting 2 18.9
2014-Aug-30 20:56 292 1 gusting 2 18.9
2014-Aug-30 20:51 18.9
2014-Aug-30 20:46 202 1 gusting 2 18.9
2014-Aug-30 20:41 225 0 gusting 1 18.9
2014-Aug-30 20:36 315 18.9
2014-Aug-30 20:31 18.9
2014-Aug-30 20:26 337 0 gusting 0 18.9
2014-Aug-30 20:21 202 18.9
2014-Aug-30 20:16 022 19.4
2014-Aug-30 20:11 247 1 gusting 2 19.4
2014-Aug-30 20:06 270 2 gusting 3 19.4
2014-Aug-30 20:01 270 1 gusting 2 19.4
2014-Aug-30 19:56 270 2 gusting 3 19.4
2014-Aug-30 19:51 247 0 gusting 1 19.4
2014-Aug-30 19:46 270 2 gusting 2 19.4
2014-Aug-30 19:41 337 0 gusting 1 19.4
2014-Aug-30 19:36 270 3 gusting 4 19.4
2014-Aug-30 19:31 292 0 gusting 1 19.4
2014-Aug-30 19:26 270 0 gusting 1 20.0
2014-Aug-30 19:21 20.0
2014-Aug-30 19:16 337 2 gusting 3 20.0
2014-Aug-30 19:11 315 2 gusting 4 20.0
2014-Aug-30 19:06 315 2 gusting 4 20.0
2014-Aug-30 19:01 045 1 gusting 2 20.0
2014-Aug-30 18:56 022 5 gusting 7 20.0
2014-Aug-30 18:51 20.0
2014-Aug-30 18:46 045 2 gusting 5 20.0
2014-Aug-30 18:41 045 0 gusting 1 20.0
2014-Aug-30 18:36 022 4 gusting 5 20.0
2014-Aug-30 18:31 045 0 gusting 1 20.0
2014-Aug-30 18:26 022 1 gusting 2 20.0
2014-Aug-30 18:21 202 1 gusting 3 20.0
2014-Aug-30 18:16 20.0
2014-Aug-30 18:11 045 1 gusting 4 20.0
2014-Aug-30 18:06 022 1 gusting 2 20.6
2014-Aug-30 18:01 045 5 gusting 6 20.6
2014-Aug-30 17:56 045 3 gusting 6 20.6
2014-Aug-30 17:51 022 4 gusting 6 20.6
2014-Aug-30 17:46 045 3 gusting 4 20.6
2014-Aug-30 17:41 112 2 gusting 5 20.6
2014-Aug-30 17:36 045 2 gusting 4 20.6
2014-Aug-30 17:31 045 3 gusting 5 20.6
2014-Aug-30 17:26 022 4 gusting 6 20.6
2014-Aug-30 17:21 022 0 gusting 3 21.1
2014-Aug-30 17:16 21.1
2014-Aug-30 17:11 045 3 gusting 6 21.1
2014-Aug-30 17:06 067 3 gusting 4 21.1
2014-Aug-30 17:01 292 2 gusting 4 21.7
2014-Aug-30 16:56 337 3 gusting 5 21.7
2014-Aug-30 16:51 21.7
2014-Aug-30 16:46 045 4 gusting 6 22.2
2014-Aug-30 16:41 045 6 gusting 7 22.2
2014-Aug-30 16:36 022 6 gusting 11 22.2
2014-Aug-30 16:31 045 4 gusting 6 22.2
2014-Aug-30 16:26 022 5 gusting 6 22.2
2014-Aug-30 16:21 045 6 gusting 8 22.8
2014-Aug-30 16:16 045 4 gusting 6 22.8
2014-Aug-30 16:11 022 7 gusting 10 23.3
2014-Aug-30 16:06 045 7 gusting 12 23.9
2014-Aug-30 16:01 022 6 gusting 8 25.0
2014-Aug-30 15:56 25.0
2014-Aug-30 15:51 25.0
2014-Aug-30 15:46 25.6
2014-Aug-30 15:41 225 5 gusting 7 25.6
2014-Aug-30 15:36 337 6 gusting 10 25.6
2014-Aug-30 15:31 022 10 gusting 13 26.1
2014-Aug-30 15:26 26.1
2014-Aug-30 15:21 26.7
2014-Aug-30 15:16 180 3 gusting 7 26.7
2014-Aug-30 15:11 022 6 gusting 13 26.7
2014-Aug-30 15:06 26.7
2014-Aug-30 15:01 26.7
2014-Aug-30 14:56 045 6 gusting 10 26.7
2014-Aug-30 14:51 045 4 gusting 8 26.7
2014-Aug-30 14:46 26.7
2014-Aug-30 14:41 045 8 gusting 12 27.2
2014-Aug-30 14:36 022 5 gusting 13 27.2
2014-Aug-30 14:31 045 7 gusting 10 27.2
2014-Aug-30 14:26 337 9 gusting 12 27.2
2014-Aug-30 14:21 27.2
2014-Aug-30 14:16 337 6 gusting 10 27.8
2014-Aug-30 14:11 022 8 gusting 10 27.8
2014-Aug-30 14:06 315 7 gusting 13 27.8
2014-Aug-30 14:01 022 5 gusting 8 27.8
2014-Aug-30 13:56 022 6 gusting 9 27.8
2014-Aug-30 13:51 337 10 gusting 16 27.8
2014-Aug-30 13:46 337 9 gusting 15 28.3
2014-Aug-30 13:41 292 5 gusting 7 28.3
2014-Aug-30 13:36 337 10 gusting 15 27.8
2014-Aug-30 13:31 022 8 gusting 13 27.8
2014-Aug-30 13:26 337 5 gusting 8 28.3
2014-Aug-30 13:21 28.3
2014-Aug-30 13:16 315 6 gusting 8 28.9
2014-Aug-30 13:11 292 4 gusting 6 28.9
2014-Aug-30 13:06 28.9
2014-Aug-30 13:01 045 6 gusting 13 28.3
2014-Aug-30 12:56 315 4 gusting 8 28.3
2014-Aug-30 12:51 045 9 gusting 13 28.9
2014-Aug-30 12:46 270 5 gusting 6 28.9
2014-Aug-30 12:41 337 4 gusting 6 28.9
2014-Aug-30 12:36 315 6 gusting 10 28.9
2014-Aug-30 12:31 022 9 gusting 12 28.9
2014-Aug-30 12:26 315 4 gusting 8 28.9
2014-Aug-30 12:21 337 8 gusting 14 28.9
2014-Aug-30 12:16 28.9
2014-Aug-30 12:11 28.9
2014-Aug-30 12:06 28.9
2014-Aug-30 12:01 292 6 gusting 9 28.9
2014-Aug-30 11:56 247 3 gusting 6 28.9
2014-Aug-30 11:51 337 6 gusting 9 28.3
2014-Aug-30 11:46 28.9
2014-Aug-30 11:41 28.9
2014-Aug-30 11:36 045 7 gusting 11 28.9
2014-Aug-30 11:31 315 5 gusting 6 28.9
2014-Aug-30 11:26 337 4 gusting 9 28.9
2014-Aug-30 11:21 28.9
2014-Aug-30 11:16 337 8 gusting 13 28.9
2014-Aug-30 11:11 28.9
2014-Aug-30 11:06 292 5 gusting 9 28.9
2014-Aug-30 11:01 022 7 gusting 10 28.3
2014-Aug-30 10:56 28.3
2014-Aug-30 10:51 270 6 gusting 7 28.3
2014-Aug-30 10:46 022 8 gusting 14 28.9
2014-Aug-30 10:41 337 6 gusting 10 28.9
2014-Aug-30 10:36 29.4
2014-Aug-30 10:31 28.9
2014-Aug-30 10:26 022 4 gusting 7 28.9
2014-Aug-30 10:21 045 6 gusting 12 27.8
2014-Aug-30 10:16 28.3
2014-Aug-30 10:11 045 4 gusting 7 28.3
2014-Aug-30 10:06 022 9 gusting 16 27.8
2014-Aug-30 10:01 067 7 gusting 17 27.8
2014-Aug-30 09:56 27.8
2014-Aug-30 09:51 022 8 gusting 17 27.8
2014-Aug-30 09:46 27.2
2014-Aug-30 09:41 27.8
2014-Aug-30 09:36 022 5 gusting 9 27.8
2014-Aug-30 09:31 27.8
2014-Aug-30 09:26 27.2
2014-Aug-30 09:21 27.2
2014-Aug-30 09:16 045 11 gusting 17 27.2
2014-Aug-30 09:11 022 11 gusting 16 27.2
2014-Aug-30 09:06 27.2
2014-Aug-30 09:01 337 12 gusting 17 26.7
2014-Aug-30 08:56 26.7
2014-Aug-30 08:51 315 12 gusting 16 26.7
2014-Aug-30 08:46 022 9 gusting 17 26.7
2014-Aug-30 08:41 337 13 gusting 16 26.7
2014-Aug-30 08:36 315 8 gusting 16 27.2
2014-Aug-30 08:31 022 8 gusting 13 27.2
2014-Aug-30 08:26 022 6 gusting 12 26.7
2014-Aug-30 08:21 247 4 gusting 9 26.1
2014-Aug-30 08:16 045 7 gusting 12 26.1
2014-Aug-30 08:11 045 10 gusting 13 26.1
2014-Aug-30 08:06 045 12 gusting 20 25.6
2014-Aug-30 08:01 045 10 gusting 14 25.6
2014-Aug-30 07:56 022 12 gusting 19 25.6
2014-Aug-30 07:51 25.6
2014-Aug-30 07:46 022 11 gusting 15 25.0
2014-Aug-30 07:41 25.6
2014-Aug-30 07:36 045 7 gusting 15 25.6
2014-Aug-30 07:31 022 8 gusting 13 25.0
2014-Aug-30 07:26 25.0
2014-Aug-30 07:21 045 13 gusting 18 25.0
2014-Aug-30 07:16 022 8 gusting 19 25.0
2014-Aug-30 07:11 090 9 gusting 14 25.0
2014-Aug-30 07:06 045 11 gusting 19 25.6
2014-Aug-30 07:01 25.0
2014-Aug-30 06:56 25.6
2014-Aug-30 06:51 045 6 gusting 8 25.0
2014-Aug-30 06:46 25.6
2014-Aug-30 06:41 022 8 gusting 16 25.6
2014-Aug-30 06:36 24.4
2014-Aug-30 06:31 337 6 gusting 10 23.9
2014-Aug-30 06:26 23.9
2014-Aug-30 06:21 315 8 gusting 13 23.9
2014-Aug-30 06:16 337 10 gusting 17 23.3
2014-Aug-30 06:11 23.3
2014-Aug-30 06:06 337 10 gusting 13 22.8
2014-Aug-30 06:01 22.8
2014-Aug-30 05:56 022 7 gusting 15 22.8
2014-Aug-30 05:51 045 13 gusting 19 22.8
2014-Aug-30 05:46 045 10 gusting 14 22.2
2014-Aug-30 05:41 315 10 gusting 17 22.2
2014-Aug-30 05:36 090 13 gusting 19 22.2
2014-Aug-30 05:31 022 13 gusting 21 22.2
2014-Aug-30 05:26 022 7 gusting 14 22.2
2014-Aug-30 05:21 22.2
2014-Aug-30 05:16 022 11 gusting 16 21.7
2014-Aug-30 05:11 21.7
2014-Aug-30 05:06 067 4 gusting 9 21.7
2014-Aug-30 05:01 045 9 gusting 14 21.7
2014-Aug-30 04:56 21.7
2014-Aug-30 04:51 315 3 gusting 6 21.1
2014-Aug-30 04:46 21.1
2014-Aug-30 04:41 022 13 gusting 18 20.6
2014-Aug-30 04:36 022 9 gusting 13 20.6
2014-Aug-30 04:31 20.0
2014-Aug-30 04:26 045 7 gusting 12 19.4
2014-Aug-30 04:21 022 6 gusting 15 19.4
2014-Aug-30 04:16 045 11 gusting 18 19.4
2014-Aug-30 04:11 292 8 gusting 12 19.4
2014-Aug-30 04:06 045 9 gusting 14 19.4
2014-Aug-30 04:01 19.4
2014-Aug-30 03:56 022 11 gusting 14 19.4
2014-Aug-30 03:51 045 12 gusting 17 19.4
2014-Aug-30 03:46 337 9 gusting 15 19.4
2014-Aug-30 03:41 022 8 gusting 14 18.9
2014-Aug-30 03:36 090 9 gusting 14 19.4
2014-Aug-30 03:31 270 10 gusting 17 19.4
2014-Aug-30 03:26 022 9 gusting 15 19.4
2014-Aug-30 03:21 135 9 gusting 14 19.4
2014-Aug-30 03:16 19.4
2014-Aug-30 03:11 19.4
2014-Aug-30 03:06 022 11 gusting 14 19.4
2014-Aug-30 03:01 045 10 gusting 17 19.4
2014-Aug-30 02:56 20.0
2014-Aug-30 02:51 20.0
2014-Aug-30 02:46 20.0
2014-Aug-30 02:41 022 8 gusting 13 20.0
2014-Aug-30 02:36 022 7 gusting 18 20.0
2014-Aug-30 02:31 045 8 gusting 18 20.0
2014-Aug-30 02:26 022 6 gusting 12 20.0
2014-Aug-30 02:21 022 7 gusting 13 20.0
2014-Aug-30 02:16 045 7 gusting 12 20.0
2014-Aug-30 02:11 20.0
2014-Aug-30 02:06 090 9 gusting 14 20.0
2014-Aug-30 02:01 022 9 gusting 13 19.4
2014-Aug-30 01:56 112 3 gusting 5 19.4
2014-Aug-30 01:51 022 7 gusting 13 19.4
2014-Aug-30 01:46 315 4 gusting 11 20.0
2014-Aug-30 01:41 022 6 gusting 9 20.0
2014-Aug-30 01:36 045 9 gusting 14 20.0
2014-Aug-30 01:31 045 6 gusting 11 19.4
2014-Aug-30 01:26 045 3 gusting 7 19.4
2014-Aug-30 01:21 112 7 gusting 13 19.4
2014-Aug-30 01:16 045 4 gusting 8 19.4
2014-Aug-30 01:11 202 2 gusting 3 19.4
2014-Aug-30 01:06 247 4 gusting 7 19.4
2014-Aug-30 01:01 090 2 gusting 10 19.4
2014-Aug-30 00:56 19.4
2014-Aug-30 00:51 112 3 gusting 6 20.0
2014-Aug-30 00:46 045 7 gusting 14 19.4
2014-Aug-30 00:41 022 3 gusting 5 19.4
2014-Aug-30 00:36 337 4 gusting 12 20.0
2014-Aug-30 00:31 19.4
2014-Aug-30 00:26 19.4
2014-Aug-30 00:21 090 2 gusting 5 20.0
2014-Aug-30 00:16 180 4 gusting 6 20.0
2014-Aug-30 00:11 090 6 gusting 12 20.0
2014-Aug-30 00:06 202 6 gusting 9 20.0
2014-Aug-30 00:01 067 3 gusting 5 20.0
2014-Aug-29 23:56 270 3 gusting 6 20.0
2014-Aug-29 23:51 292 3 gusting 6 20.0
2014-Aug-29 23:46 247 2 gusting 3 20.0
2014-Aug-29 23:41 180 1 gusting 3 20.0
2014-Aug-29 23:36 067 6 gusting 12 20.0
2014-Aug-29 23:31 112 3 gusting 5 20.0
2014-Aug-29 23:26 067 3 gusting 8 20.0
2014-Aug-29 23:21 112 2 gusting 4 20.0
2014-Aug-29 23:16 337 2 gusting 6 20.6
2014-Aug-29 23:11 270 2 gusting 4 20.6
2014-Aug-29 23:06 067 4 gusting 9 20.6
2014-Aug-29 23:01 225 2 gusting 6 20.6
2014-Aug-29 22:56 292 5 gusting 13 20.6
2014-Aug-29 22:51 045 1 gusting 2 20.6
2014-Aug-29 22:46 067 5 gusting 8 20.6
2014-Aug-29 22:41 045 3 gusting 6 20.6
2014-Aug-29 22:36 157 1 gusting 2 20.6
2014-Aug-29 22:31 337 3 gusting 7 20.6
2014-Aug-29 22:26 157 4 gusting 7 20.6
2014-Aug-29 22:21 225 3 gusting 5 21.1
2014-Aug-29 22:16 337 5 gusting 9 21.1
2014-Aug-29 22:11 225 1 gusting 2 21.1
2014-Aug-29 22:06 247 3 gusting 6 21.1
2014-Aug-29 22:01 157 4 gusting 6 21.1
2014-Aug-29 21:56 292 7 gusting 13 21.1
2014-Aug-29 21:51 135 2 gusting 4 21.1
2014-Aug-29 21:46 180 1 gusting 2 21.1
2014-Aug-29 21:41 112 3 gusting 7 21.1
2014-Aug-29 21:36 135 2 gusting 6 21.1
2014-Aug-29 21:31 090 2 gusting 4 21.1
2014-Aug-29 21:26 225 1 gusting 2 21.1
2014-Aug-29 21:21 157 5 gusting 10 21.1
2014-Aug-29 21:16 270 2 gusting 9 21.1
2014-Aug-29 21:11 045 3 gusting 6 21.1
2014-Aug-29 21:06 022 6 gusting 13 21.1
2014-Aug-29 21:01 022 4 gusting 8 21.7
2014-Aug-29 20:56 090 6 gusting 13 21.7
2014-Aug-29 20:51 135 7 gusting 13 21.1
2014-Aug-29 20:46 045 6 gusting 12 21.1
2014-Aug-29 20:41 045 5 gusting 12 21.7
2014-Aug-29 20:36 21.7
2014-Aug-29 20:31 090 6 gusting 14 21.7
2014-Aug-29 20:26 067 6 gusting 13 21.7
2014-Aug-29 20:21 022 5 gusting 8 21.7
2014-Aug-29 20:16 225 4 gusting 7 21.7
2014-Aug-29 20:11 090 8 gusting 16 21.7
2014-Aug-29 20:06 022 7 gusting 13 21.7
2014-Aug-29 20:01 090 6 gusting 12 21.7
2014-Aug-29 19:56 022 6 gusting 17 21.7
2014-Aug-29 19:51 21.7
2014-Aug-29 19:46 045 7 gusting 16 21.7
2014-Aug-29 19:41 045 8 gusting 16 21.7
2014-Aug-29 19:36 045 9 gusting 13 21.7
2014-Aug-29 19:31 067 8 gusting 15 21.7
2014-Aug-29 19:26 21.7
2014-Aug-29 19:21 21.7
2014-Aug-29 19:16 21.7
2014-Aug-29 19:11 045 8 gusting 19 21.7
2014-Aug-29 19:06 067 13 gusting 21 22.2
2014-Aug-29 19:01 045 11 gusting 18 21.7
2014-Aug-29 18:56 21.7
2014-Aug-29 18:51 045 7 gusting 16 22.2
2014-Aug-29 18:46 22.2
2014-Aug-29 18:41 337 11 gusting 16 21.7
2014-Aug-29 18:36 090 12 gusting 21 21.7
2014-Aug-29 18:31 045 11 gusting 19 22.2
2014-Aug-29 18:26 315 7 gusting 12 22.2
2014-Aug-29 18:21 22.2
2014-Aug-29 18:16 022 9 gusting 16 22.2
2014-Aug-29 18:11 022 10 gusting 21 22.2
2014-Aug-29 18:06 090 10 gusting 20 22.2
2014-Aug-29 18:01 090 11 gusting 17 22.2
2014-Aug-29 17:56 045 10 gusting 16 22.2
2014-Aug-29 17:51 022 12 gusting 21 22.2
2014-Aug-29 17:46 22.2
2014-Aug-29 17:41 022 9 gusting 16 22.2
2014-Aug-29 17:36 090 6 gusting 10 22.2
2014-Aug-29 17:31 067 6 gusting 12 22.2
2014-Aug-29 17:26 247 9 gusting 13 22.2
2014-Aug-29 17:21 22.2
2014-Aug-29 17:16 045 8 gusting 14 22.2
2014-Aug-29 17:11 022 9 gusting 18 22.2
2014-Aug-29 17:06 090 11 gusting 19 22.2
2014-Aug-29 17:01 22.2
2014-Aug-29 16:56 22.8
2014-Aug-29 16:51 067 11 gusting 16 22.8
2014-Aug-29 16:46 067 6 gusting 9 22.8
2014-Aug-29 16:41 315 11 gusting 19 22.8
2014-Aug-29 16:36 067 10 gusting 13 22.8
2014-Aug-29 16:31 045 9 gusting 14 22.8
2014-Aug-29 16:26 315 9 gusting 14 23.3
2014-Aug-29 16:21 067 7 gusting 13 23.3
2014-Aug-29 16:16 045 8 gusting 13 23.9
2014-Aug-29 16:11 045 11 gusting 17 23.9
2014-Aug-29 16:06 045 8 gusting 13 23.9
2014-Aug-29 16:01 090 9 gusting 19 23.9
2014-Aug-29 15:56 135 8 gusting 13 24.4
2014-Aug-29 15:51 045 9 gusting 17 25.0
2014-Aug-29 15:46 135 6 gusting 13 25.0
2014-Aug-29 15:41 067 7 gusting 13 25.0
2014-Aug-29 15:36 022 10 gusting 18 25.6
2014-Aug-29 15:31 157 6 gusting 13 25.6
2014-Aug-29 15:26 25.6
2014-Aug-29 15:21 067 11 gusting 20 26.1
2014-Aug-29 15:16 045 6 gusting 13 26.1
2014-Aug-29 15:11 26.7
2014-Aug-29 15:06 090 6 gusting 11 26.7
2014-Aug-29 15:01 067 13 gusting 20 27.2
2014-Aug-29 14:56 090 12 gusting 19 27.2
2014-Aug-29 14:51 067 6 gusting 13 27.2
2014-Aug-29 14:46 202 11 gusting 16 27.2
2014-Aug-29 14:41 045 5 gusting 6 27.2
2014-Aug-29 14:36 045 6 gusting 13 27.2
2014-Aug-29 14:31 067 5 gusting 8 27.2
2014-Aug-29 14:26 045 8 gusting 15 27.2
2014-Aug-29 14:21 045 11 gusting 16 27.2
2014-Aug-29 14:16 292 8 gusting 13 27.8
2014-Aug-29 14:11 022 6 gusting 12 27.8
2014-Aug-29 14:06 337 12 gusting 19 27.8
2014-Aug-29 14:01 090 10 gusting 15 28.3
2014-Aug-29 13:56 045 6 gusting 12 28.3
2014-Aug-29 13:51 022 9 gusting 13 28.3
2014-Aug-29 13:46 045 9 gusting 13 28.9
2014-Aug-29 13:41 28.9
2014-Aug-29 13:36 045 13 gusting 19 28.9
2014-Aug-29 13:31 28.9
2014-Aug-29 13:26 045 6 gusting 12 28.9
2014-Aug-29 13:21 045 6 gusting 10 28.9
2014-Aug-29 13:16 28.9
2014-Aug-29 13:11 022 11 gusting 24 28.9
2014-Aug-29 13:06 090 11 gusting 20 28.9
2014-Aug-29 13:01 067 6 gusting 12 28.9
2014-Aug-29 12:56 045 6 gusting 13 28.9
2014-Aug-29 12:51 112 6 gusting 13 28.9
2014-Aug-29 12:46 28.9
2014-Aug-29 12:41 090 6 gusting 17 28.3
2014-Aug-29 12:36 28.3
2014-Aug-29 12:31 067 9 gusting 13 28.9
2014-Aug-29 12:26 045 6 gusting 10 28.9
2014-Aug-29 12:21 022 8 gusting 17 28.9
2014-Aug-29 12:16 067 11 gusting 19 28.9
2014-Aug-29 12:11 067 13 gusting 19 28.9
2014-Aug-29 12:06 067 13 gusting 24 28.9
2014-Aug-29 12:01 045 9 gusting 16 28.9
2014-Aug-29 11:56 067 10 gusting 17 28.9
2014-Aug-29 11:51 045 8 gusting 18 28.9
2014-Aug-29 11:46 045 14 gusting 21 29.4
2014-Aug-29 11:41 090 10 gusting 15 29.4
2014-Aug-29 11:36 045 13 gusting 19 29.4
2014-Aug-29 11:31 045 11 gusting 15 29.4
2014-Aug-29 11:26 022 13 gusting 19 29.4
2014-Aug-29 11:21 045 6 gusting 10 28.9
2014-Aug-29 11:16 090 14 gusting 22 28.9
2014-Aug-29 11:11 28.9
2014-Aug-29 11:06 337 12 gusting 16 29.4
2014-Aug-29 11:01 315 7 gusting 16 29.4
2014-Aug-29 10:56 315 10 gusting 21 29.4
2014-Aug-29 10:51 045 11 gusting 15 28.9
2014-Aug-29 10:46 337 10 gusting 18 28.9
2014-Aug-29 10:41 29.4
2014-Aug-29 10:36 045 9 gusting 15 29.4
2014-Aug-29 10:31 045 8 gusting 13 29.4
2014-Aug-29 10:26 28.9
2014-Aug-29 10:21 28.9
2014-Aug-29 10:16 045 11 gusting 19 28.3